createdAt,value
2023-03-04T00:00:56.054Z,95.01
2023-03-04T00:01:56.046Z,95.11
2023-03-04T00:02:56.053Z,95.01
2023-03-04T00:03:56.032Z,95.01
2023-03-04T00:04:56.024Z,95.11
2023-03-04T00:05:56.016Z,95.01
2023-03-04T00:06:56.012Z,95.07
2023-03-04T00:07:56.007Z,95.11
2023-03-04T00:08:55.998Z,95.01
2023-03-04T00:09:55.989Z,95.01
2023-03-04T00:10:55.983Z,95.01
2023-03-04T00:11:55.979Z,95.01
2023-03-04T00:12:56.004Z,95.01
2023-03-04T00:13:55.965Z,94.80
2023-03-04T00:14:55.967Z,94.86
2023-03-04T00:15:55.949Z,94.96
2023-03-04T00:16:55.940Z,95.11
2023-03-04T00:17:55.936Z,95.07
2023-03-04T00:18:55.926Z,94.96
2023-03-04T00:19:55.918Z,95.07
2023-03-04T00:20:55.918Z,95.28
2023-03-04T00:21:55.904Z,95.17
2023-03-04T00:22:55.899Z,95.07
2023-03-04T00:23:55.891Z,95.21
2023-03-04T00:24:55.886Z,95.17
2023-03-04T00:25:55.874Z,95.28
2023-03-04T00:26:55.873Z,94.96
2023-03-04T00:27:55.861Z,95.21
2023-03-04T00:28:55.877Z,94.96
2023-03-04T00:29:55.846Z,94.96
2023-03-04T00:30:55.856Z,95.07
2023-03-04T00:31:55.927Z,94.96
2023-03-04T00:32:55.826Z,94.96
2023-03-04T00:33:55.826Z,94.96
2023-03-04T00:34:55.813Z,95.07
2023-03-04T00:35:55.817Z,94.45
2023-03-04T00:36:55.801Z,94.55
2023-03-04T00:37:55.790Z,94.65
2023-03-04T00:38:55.784Z,94.55
2023-03-04T00:39:55.788Z,95.42
2023-03-04T00:40:55.773Z,94.65
2023-03-04T00:41:55.762Z,94.70
2023-03-04T00:42:55.758Z,94.65
2023-03-04T00:43:55.753Z,94.45
2023-03-04T00:44:55.764Z,94.34
2023-03-04T00:45:55.884Z,95.11
2023-03-04T00:46:55.737Z,94.86
2023-03-04T00:47:55.724Z,95.21
2023-03-04T00:48:55.716Z,95.17
2023-03-04T00:49:55.705Z,95.07
2023-03-04T00:50:55.705Z,95.11
2023-03-04T00:51:55.691Z,95.01
2023-03-04T00:52:55.703Z,95.21
2023-03-04T00:53:55.676Z,95.17
2023-03-04T00:54:55.675Z,95.01
2023-03-04T00:55:55.666Z,95.07
2023-03-04T00:56:55.657Z,95.07
2023-03-04T00:57:55.650Z,95.07
2023-03-04T00:58:55.645Z,95.07
2023-03-04T00:59:55.642Z,94.96
2023-03-04T01:00:55.691Z,94.96
2023-03-04T01:01:55.627Z,94.96
2023-03-04T01:02:55.621Z,95.07
2023-03-04T01:03:55.615Z,95.17
2023-03-04T01:04:55.601Z,94.96
2023-03-04T01:05:55.597Z,95.03
2023-03-04T01:06:55.586Z,94.92
2023-03-04T01:07:55.594Z,95.07
2023-03-04T01:08:55.613Z,94.86
2023-03-04T01:09:55.574Z,94.13
2023-03-04T01:10:55.567Z,94.03
2023-03-04T01:11:55.548Z,94.34
2023-03-04T01:12:55.548Z,94.86
2023-03-04T01:13:55.541Z,94.65
2023-03-04T01:14:55.538Z,94.76
2023-03-04T01:15:55.522Z,94.76
2023-03-04T01:16:55.624Z,94.65
2023-03-04T01:17:55.578Z,94.90
2023-03-04T01:18:55.505Z,94.86
2023-03-04T01:19:55.493Z,94.76
2023-03-04T01:20:55.488Z,94.86
2023-03-04T01:21:55.479Z,94.76
2023-03-04T01:22:55.477Z,94.70
2023-03-04T01:23:55.464Z,94.80
2023-03-04T01:24:55.461Z,94.65
2023-03-04T01:25:55.448Z,94.45
2023-03-04T01:26:55.447Z,95.28
2023-03-04T01:27:55.440Z,95.07
2023-03-04T01:28:55.438Z,94.96
2023-03-04T01:29:55.773Z,95.07
2023-03-04T01:30:55.549Z,95.17
2023-03-04T01:31:55.442Z,95.07
2023-03-04T01:32:55.421Z,95.17
2023-03-04T01:33:55.393Z,95.28
2023-03-04T01:34:55.392Z,94.34
2023-03-04T01:35:55.423Z,94.34
2023-03-04T01:36:55.383Z,94.65
2023-03-04T01:37:55.369Z,94.65
2023-03-04T01:38:55.361Z,94.76
2023-03-04T01:39:55.353Z,94.76
2023-03-04T01:40:55.350Z,94.76
2023-03-04T01:41:55.344Z,94.55
2023-03-04T01:42:55.333Z,94.55
2023-03-04T01:43:55.325Z,94.76
2023-03-04T01:44:55.319Z,94.76
2023-03-04T01:45:55.367Z,94.45
2023-03-04T01:46:55.310Z,94.45
2023-03-04T01:47:55.303Z,95.07
2023-03-04T01:48:55.381Z,95.07
2023-03-04T01:49:55.288Z,95.28
2023-03-04T01:50:55.282Z,94.96
2023-03-04T01:51:55.279Z,95.03
2023-03-04T01:52:55.267Z,94.96
2023-03-04T01:53:55.269Z,94.96
2023-03-04T01:54:55.255Z,94.86
2023-03-04T01:55:55.246Z,95.13
2023-03-04T01:56:55.237Z,94.71
2023-03-04T01:57:55.229Z,95.07
2023-03-04T01:58:55.224Z,95.07
2023-03-04T01:59:55.220Z,94.96
2023-03-04T02:00:55.210Z,95.07
2023-03-04T02:01:55.279Z,94.24
2023-03-04T02:02:55.199Z,94.76
2023-03-04T02:03:55.234Z,94.76
2023-03-04T02:04:55.210Z,94.55
2023-03-04T02:05:55.172Z,94.45
2023-03-04T02:06:55.181Z,94.45
2023-03-04T02:07:55.164Z,95.28
2023-03-04T02:08:55.153Z,95.28
2023-03-04T02:09:55.146Z,94.96
2023-03-04T02:10:55.152Z,95.17
2023-03-04T02:11:55.130Z,95.07
2023-03-04T02:12:55.127Z,95.07
2023-03-04T02:13:55.124Z,94.86
2023-03-04T02:14:55.112Z,95.07
2023-03-04T02:15:55.178Z,95.13
2023-03-04T02:16:55.122Z,95.03
2023-03-04T02:17:55.094Z,95.07
2023-03-04T02:18:55.096Z,95.17
2023-03-04T02:19:55.081Z,94.86
2023-03-04T02:20:55.092Z,94.96
2023-03-04T02:21:55.076Z,95.17
2023-03-04T02:22:55.060Z,95.17
2023-03-04T02:23:55.054Z,94.96
2023-03-04T02:24:55.054Z,94.96
2023-03-04T02:25:55.065Z,94.86
2023-03-04T02:26:55.033Z,94.86
2023-03-04T02:27:55.026Z,95.03
2023-03-04T02:28:55.019Z,95.07
2023-03-04T02:29:55.010Z,95.07
2023-03-04T02:30:55.045Z,94.96
2023-03-04T02:31:55.042Z,94.92
2023-03-04T02:32:54.985Z,95.03
2023-03-04T02:33:54.995Z,95.07
2023-03-04T02:34:54.973Z,95.07
2023-03-04T02:35:55.038Z,95.17
2023-03-04T02:36:54.980Z,95.03
2023-03-04T02:37:54.953Z,95.07
2023-03-04T02:38:54.950Z,94.86
2023-03-04T02:39:54.939Z,95.07
2023-03-04T02:40:54.930Z,95.17
2023-03-04T02:41:54.937Z,94.92
2023-03-04T02:42:54.918Z,94.86
2023-03-04T02:43:54.916Z,95.23
2023-03-04T02:44:54.903Z,95.17
2023-03-04T02:45:54.899Z,95.07
2023-03-04T02:46:54.992Z,95.28
2023-03-04T02:47:54.888Z,95.17
2023-03-04T02:48:54.876Z,95.13
2023-03-04T02:49:54.880Z,95.03
2023-03-04T02:50:54.873Z,94.92
2023-03-04T02:51:54.863Z,95.03
2023-03-04T02:52:54.870Z,95.03
2023-03-04T02:53:54.845Z,95.03
2023-03-04T02:54:54.834Z,94.82
2023-03-04T02:55:54.836Z,94.96
2023-03-04T02:56:54.834Z,95.17
2023-03-04T02:57:54.819Z,95.13
2023-03-04T02:58:54.815Z,95.23
2023-03-04T02:59:54.817Z,95.13
2023-03-04T03:00:54.802Z,95.07
2023-03-04T03:01:54.869Z,95.23
2023-03-04T03:02:54.801Z,94.92
2023-03-04T03:03:54.783Z,95.13
2023-03-04T03:04:54.768Z,95.34
2023-03-04T03:05:54.760Z,95.17
2023-03-04T03:06:54.758Z,95.07
2023-03-04T03:07:54.752Z,95.03
2023-03-04T03:08:54.758Z,95.17
2023-03-04T03:09:54.737Z,95.13
2023-03-04T03:10:54.726Z,95.34
2023-03-04T03:11:54.721Z,95.03
2023-03-04T03:12:54.713Z,94.92
2023-03-04T03:13:54.707Z,95.03
2023-03-04T03:14:54.708Z,95.03
2023-03-04T03:15:54.735Z,95.34
2023-03-04T03:16:54.684Z,95.38
2023-03-04T03:17:54.679Z,95.03
2023-03-04T03:18:54.672Z,95.07
2023-03-04T03:19:54.666Z,95.03
2023-03-04T03:20:54.666Z,95.38
2023-03-04T03:21:54.649Z,95.38
2023-03-04T03:22:54.643Z,95.13
2023-03-04T03:23:54.639Z,94.86
2023-03-04T03:24:54.651Z,94.92
2023-03-04T03:25:54.623Z,95.23
2023-03-04T03:26:54.615Z,95.54
2023-03-04T03:27:54.613Z,95.44
2023-03-04T03:28:54.600Z,95.54
2023-03-04T03:29:54.596Z,95.38
2023-03-04T03:30:54.582Z,95.34
2023-03-04T03:31:54.638Z,95.34
2023-03-04T03:32:54.568Z,95.54
2023-03-04T03:33:54.568Z,95.54
2023-03-04T03:34:54.557Z,95.44
2023-03-04T03:35:54.639Z,95.13
2023-03-04T03:36:54.542Z,94.82
2023-03-04T03:37:54.540Z,94.92
2023-03-04T03:38:54.537Z,95.23
2023-03-04T03:39:54.531Z,95.13
2023-03-04T03:40:54.547Z,95.23
2023-03-04T03:41:54.514Z,95.13
2023-03-04T03:42:54.501Z,95.13
2023-03-04T03:43:54.494Z,95.54
2023-03-04T03:44:54.508Z,95.54
2023-03-04T03:45:54.534Z,95.44
2023-03-04T03:46:54.477Z,95.54
2023-03-04T03:47:54.478Z,95.44
2023-03-04T03:48:54.456Z,95.44
2023-03-04T03:49:54.461Z,95.07
2023-03-04T03:50:54.449Z,95.13
2023-03-04T03:51:54.446Z,95.34
2023-03-04T03:52:54.434Z,95.38
2023-03-04T03:53:54.424Z,94.96
2023-03-04T03:54:54.425Z,95.07
2023-03-04T03:55:54.421Z,95.07
2023-03-04T03:56:54.431Z,95.07
2023-03-04T03:57:54.408Z,95.28
2023-03-04T03:58:54.391Z,95.17
2023-03-04T03:59:54.388Z,95.38
2023-03-04T04:00:56.483Z,95.59
2023-03-04T04:01:54.510Z,95.48
2023-03-04T04:02:54.453Z,95.48
2023-03-04T04:03:54.359Z,95.69
2023-03-04T04:04:54.353Z,95.48
2023-03-04T04:05:54.355Z,95.59
2023-03-04T04:06:54.336Z,95.90
2023-03-04T04:07:54.363Z,95.79
2023-03-04T04:08:54.327Z,96.00
2023-03-04T04:09:54.320Z,96.42
2023-03-04T04:10:54.316Z,96.42
2023-03-04T04:11:54.306Z,96.94
2023-03-04T04:12:54.317Z,96.58
2023-03-04T04:13:54.291Z,96.48
2023-03-04T04:14:54.293Z,96.37
2023-03-04T04:15:54.317Z,96.48
2023-03-04T04:16:54.289Z,96.58
2023-03-04T04:17:54.268Z,96.69
2023-03-04T04:18:54.257Z,96.48
2023-03-04T04:19:54.247Z,96.69
2023-03-04T04:20:54.240Z,96.58
2023-03-04T04:21:54.234Z,96.69
2023-03-04T04:22:54.233Z,96.48
2023-03-04T04:23:54.220Z,96.58
2023-03-04T04:24:54.210Z,96.48
2023-03-04T04:25:54.205Z,96.69
2023-03-04T04:26:54.194Z,96.48
2023-03-04T04:27:54.204Z,96.37
2023-03-04T04:28:54.205Z,96.48
2023-03-04T04:29:54.175Z,96.48
2023-03-04T04:30:54.189Z,96.69
2023-03-04T04:31:54.194Z,96.89
2023-03-04T04:32:54.159Z,96.89
2023-03-04T04:33:54.149Z,96.79
2023-03-04T04:34:54.140Z,96.58
2023-03-04T04:35:54.200Z,96.79
2023-03-04T04:36:54.126Z,96.06
2023-03-04T04:37:54.120Z,95.86
2023-03-04T04:38:54.112Z,95.34
2023-03-04T04:39:54.121Z,95.40
2023-03-04T04:40:54.095Z,95.09
2023-03-04T04:41:54.090Z,95.19
2023-03-04T04:42:54.099Z,95.09
2023-03-04T04:43:54.083Z,94.82
2023-03-04T04:44:54.084Z,94.98
2023-03-04T04:45:54.133Z,95.13
2023-03-04T04:46:54.054Z,94.88
2023-03-04T04:47:54.048Z,95.19
2023-03-04T04:48:54.044Z,95.19
2023-03-04T04:49:54.034Z,94.88
2023-03-04T04:50:54.026Z,94.98
2023-03-04T04:51:54.026Z,94.88
2023-03-04T04:52:54.017Z,95.09
2023-03-04T04:53:54.016Z,94.88
2023-03-04T04:54:54.003Z,94.78
2023-03-04T04:55:53.991Z,94.88
2023-03-04T04:56:53.984Z,95.09
2023-03-04T04:57:53.980Z,94.98
2023-03-04T04:58:53.970Z,94.78
2023-03-04T04:59:53.964Z,95.19
2023-03-04T05:00:53.976Z,94.57
2023-03-04T05:01:53.954Z,94.67
2023-03-04T05:02:53.965Z,93.63
2023-03-04T05:03:53.943Z,93.53
2023-03-04T05:04:53.935Z,93.12
2023-03-04T05:05:53.929Z,92.80
2023-03-04T05:06:53.922Z,93.43
2023-03-04T05:07:53.914Z,93.63
2023-03-04T05:08:53.911Z,92.90
2023-03-04T05:09:53.902Z,93.12
2023-03-04T05:10:53.896Z,93.32
2023-03-04T05:11:53.891Z,92.59
2023-03-04T05:12:53.885Z,92.69
2023-03-04T05:13:53.879Z,92.59
2023-03-04T05:14:53.869Z,92.80
2023-03-04T05:15:54.109Z,92.59
2023-03-04T05:16:53.913Z,92.18
2023-03-04T05:17:53.849Z,92.59
2023-03-04T05:18:53.844Z,92.18
2023-03-04T05:19:53.842Z,92.18
2023-03-04T05:20:53.828Z,92.14
2023-03-04T05:21:53.823Z,92.49
2023-03-04T05:22:53.821Z,92.55
2023-03-04T05:23:53.806Z,91.97
2023-03-04T05:24:53.797Z,91.45
2023-03-04T05:25:53.824Z,91.41
2023-03-04T05:26:53.802Z,91.14
2023-03-04T05:27:53.793Z,91.72
2023-03-04T05:28:53.780Z,92.03
2023-03-04T05:29:53.765Z,91.52
2023-03-04T05:30:53.766Z,91.72
2023-03-04T05:31:53.769Z,92.03
2023-03-04T05:32:53.798Z,92.03
2023-03-04T05:33:53.742Z,91.52
2023-03-04T05:34:53.930Z,92.03
2023-03-04T05:35:53.788Z,91.31
2023-03-04T05:36:53.722Z,91.10
2023-03-04T05:37:53.716Z,92.03
2023-03-04T05:38:53.701Z,91.20
2023-03-04T05:39:53.696Z,91.41
2023-03-04T05:40:53.698Z,91.00
2023-03-04T05:41:53.697Z,90.37
2023-03-04T05:42:53.684Z,90.37
2023-03-04T05:43:53.674Z,90.58
2023-03-04T05:44:53.676Z,90.27
2023-03-04T05:45:53.659Z,90.06
2023-03-04T05:46:53.745Z,90.58
2023-03-04T05:47:53.651Z,90.69
2023-03-04T05:48:53.667Z,91.00
2023-03-04T05:49:53.633Z,91.00
2023-03-04T05:50:53.624Z,90.79
2023-03-04T05:51:53.619Z,90.48
2023-03-04T05:52:53.633Z,90.69
2023-03-04T05:53:53.609Z,90.58
2023-03-04T05:54:53.593Z,90.48
2023-03-04T05:55:53.613Z,90.48
2023-03-04T05:56:53.582Z,90.69
2023-03-04T05:57:53.583Z,90.48
2023-03-04T05:58:53.566Z,90.69
2023-03-04T05:59:53.562Z,90.75
2023-03-04T06:00:53.558Z,90.48
2023-03-04T06:01:53.548Z,90.69
2023-03-04T06:02:53.590Z,90.54
2023-03-04T06:03:53.598Z,89.86
2023-03-04T06:04:53.552Z,90.06
2023-03-04T06:05:53.518Z,89.96
2023-03-04T06:06:53.513Z,90.69
2023-03-04T06:07:53.506Z,90.69
2023-03-04T06:08:53.506Z,90.02
2023-03-04T06:09:53.512Z,90.37
2023-03-04T06:10:53.493Z,90.17
2023-03-04T06:11:53.495Z,90.37
2023-03-04T06:12:53.479Z,90.06
2023-03-04T06:13:53.480Z,90.17
2023-03-04T06:14:53.457Z,90.58
2023-03-04T06:15:53.487Z,90.58
2023-03-04T06:16:53.443Z,90.69
2023-03-04T06:17:53.438Z,90.02
2023-03-04T06:18:53.438Z,90.75
2023-03-04T06:19:53.429Z,90.48
2023-03-04T06:20:53.433Z,90.02
2023-03-04T06:21:53.416Z,90.12
2023-03-04T06:22:53.405Z,90.17
2023-03-04T06:23:53.401Z,90.64
2023-03-04T06:24:53.387Z,90.89
2023-03-04T06:25:53.390Z,90.79
2023-03-04T06:26:53.375Z,90.44
2023-03-04T06:27:55.132Z,90.44
2023-03-04T06:28:53.378Z,90.54
2023-03-04T06:29:53.359Z,90.44
2023-03-04T06:30:53.352Z,90.54
2023-03-04T06:31:53.408Z,89.92
2023-03-04T06:32:53.351Z,90.33
2023-03-04T06:33:53.334Z,90.58
2023-03-04T06:34:53.519Z,90.12
2023-03-04T06:35:53.353Z,89.92
2023-03-04T06:36:53.320Z,90.02
2023-03-04T06:37:53.308Z,90.44
2023-03-04T06:38:53.294Z,90.44
2023-03-04T06:39:53.297Z,90.33
2023-03-04T06:40:55.406Z,90.44
2023-03-04T06:41:53.281Z,90.54
2023-03-04T06:42:53.271Z,90.44
2023-03-04T06:43:53.274Z,89.61
2023-03-04T06:44:53.250Z,89.40
2023-03-04T06:45:53.241Z,89.61
2023-03-04T06:46:53.296Z,89.92
2023-03-04T06:47:53.229Z,89.61
2023-03-04T06:48:53.234Z,89.50
2023-03-04T06:49:53.228Z,89.86
2023-03-04T06:50:53.218Z,89.61
2023-03-04T06:51:53.198Z,89.81
2023-03-04T06:52:53.214Z,90.02
2023-03-04T06:53:53.191Z,89.71
2023-03-04T06:54:53.181Z,89.81
2023-03-04T06:55:53.175Z,89.50
2023-03-04T06:56:53.176Z,89.71
2023-03-04T06:57:53.168Z,89.81
2023-03-04T06:58:53.157Z,89.81
2023-03-04T06:59:53.152Z,89.61
2023-03-04T07:00:53.209Z,90.02
2023-03-04T07:01:53.163Z,90.23
2023-03-04T07:02:55.115Z,90.33
2023-03-04T07:03:53.227Z,90.23
2023-03-04T07:04:53.120Z,90.29
2023-03-04T07:05:53.106Z,90.02
2023-03-04T07:06:53.124Z,89.87
2023-03-04T07:07:53.099Z,90.12
2023-03-04T07:08:53.130Z,90.12
2023-03-04T07:09:53.086Z,89.61
2023-03-04T07:10:53.073Z,89.61
2023-03-04T07:11:53.077Z,89.71
2023-03-04T07:12:53.059Z,90.02
2023-03-04T07:13:53.057Z,90.44
2023-03-04T07:14:53.097Z,89.61
2023-03-04T07:15:53.037Z,89.61
2023-03-04T07:16:53.036Z,90.23
2023-03-04T07:17:53.024Z,90.33
2023-03-04T07:18:53.019Z,90.33
2023-03-04T07:19:53.032Z,89.61
2023-03-04T07:20:53.010Z,89.50
2023-03-04T07:21:53.015Z,89.50
2023-03-04T07:22:52.998Z,89.61
2023-03-04T07:23:52.998Z,89.71
2023-03-04T07:24:53.011Z,89.71
2023-03-04T07:25:52.979Z,89.71
2023-03-04T07:26:52.964Z,89.81
2023-03-04T07:27:52.957Z,89.61
2023-03-04T07:28:52.965Z,89.25
2023-03-04T07:29:52.956Z,89.19
2023-03-04T07:30:52.947Z,89.29
2023-03-04T07:31:53.769Z,89.71
2023-03-04T07:32:52.928Z,89.56
2023-03-04T07:33:52.939Z,89.67
2023-03-04T07:34:52.911Z,89.56
2023-03-04T07:35:53.021Z,89.67
2023-03-04T07:36:52.895Z,89.46
2023-03-04T07:37:52.888Z,89.40
2023-03-04T07:38:52.894Z,89.15
2023-03-04T07:39:53.028Z,89.56
2023-03-04T07:40:52.894Z,89.67
2023-03-04T07:41:52.860Z,89.56
2023-03-04T07:42:52.861Z,89.67
2023-03-04T07:43:52.857Z,88.94
2023-03-04T07:44:52.841Z,88.63
2023-03-04T07:45:52.910Z,88.94
2023-03-04T07:46:52.842Z,89.36
2023-03-04T07:47:52.833Z,89.36
2023-03-04T07:48:52.860Z,89.67
2023-03-04T07:49:52.826Z,89.73
2023-03-04T07:50:52.802Z,89.67
2023-03-04T07:51:52.792Z,89.67
2023-03-04T07:52:52.798Z,89.67
2023-03-04T07:53:52.781Z,89.67
2023-03-04T07:54:52.776Z,89.36
2023-03-04T07:55:52.765Z,89.77
2023-03-04T07:56:52.780Z,89.56
2023-03-04T07:57:52.760Z,89.04
2023-03-04T07:58:52.749Z,89.04
2023-03-04T07:59:52.744Z,89.67
2023-03-04T08:00:52.732Z,89.67
2023-03-04T08:01:52.729Z,90.39
2023-03-04T08:02:52.720Z,90.08
2023-03-04T08:03:52.772Z,89.56
2023-03-04T08:04:52.720Z,90.08
2023-03-04T08:05:52.698Z,89.56
2023-03-04T08:06:52.696Z,89.67
2023-03-04T08:07:52.686Z,89.56
2023-03-04T08:08:52.686Z,89.36
2023-03-04T08:09:52.673Z,89.36
2023-03-04T08:10:52.666Z,89.15
2023-03-04T08:11:52.663Z,89.67
2023-03-04T08:12:52.672Z,90.14
2023-03-04T08:13:52.644Z,89.62
2023-03-04T08:14:52.636Z,90.04
2023-03-04T08:15:52.716Z,89.73
2023-03-04T08:16:52.624Z,88.90
2023-03-04T08:17:52.646Z,89.62
2023-03-04T08:18:52.619Z,89.62
2023-03-04T08:19:52.607Z,89.62
2023-03-04T08:20:52.611Z,89.52
2023-03-04T08:21:52.630Z,89.62
2023-03-04T08:22:52.596Z,89.52
2023-03-04T08:23:52.647Z,89.94
2023-03-04T08:24:52.592Z,90.25
2023-03-04T08:25:52.574Z,90.25
2023-03-04T08:26:52.561Z,90.97
2023-03-04T08:27:52.555Z,90.97
2023-03-04T08:28:52.593Z,90.66
2023-03-04T08:29:52.540Z,91.08
2023-03-04T08:30:52.626Z,91.39
2023-03-04T08:31:52.692Z,91.39
2023-03-04T08:32:52.629Z,91.18
2023-03-04T08:33:52.514Z,91.70
2023-03-04T08:34:52.503Z,91.49
2023-03-04T08:35:52.522Z,91.80
2023-03-04T08:36:52.495Z,92.43
2023-03-04T08:37:52.479Z,92.38
2023-03-04T08:38:52.476Z,91.86
2023-03-04T08:39:52.815Z,91.76
2023-03-04T08:40:52.476Z,91.24
2023-03-04T08:41:52.457Z,90.93
2023-03-04T08:42:52.452Z,91.76
2023-03-04T08:43:52.442Z,90.93
2023-03-04T08:44:52.458Z,90.83
2023-03-04T08:45:52.482Z,91.03
2023-03-04T08:46:52.429Z,91.03
2023-03-04T08:47:52.435Z,92.03
2023-03-04T08:48:52.409Z,91.93
2023-03-04T08:49:52.432Z,91.61
2023-03-04T08:50:52.399Z,91.72
2023-03-04T08:51:52.388Z,90.99
2023-03-04T08:52:52.383Z,91.72
2023-03-04T08:53:52.368Z,91.30
2023-03-04T08:54:52.373Z,91.82
2023-03-04T08:55:52.358Z,91.72
2023-03-04T08:56:52.369Z,91.82
2023-03-04T08:57:52.342Z,90.78
2023-03-04T08:58:52.337Z,91.82
2023-03-04T08:59:52.329Z,90.99
2023-03-04T09:00:52.348Z,91.51
2023-03-04T09:01:52.373Z,91.41
2023-03-04T09:02:52.311Z,91.72
2023-03-04T09:03:52.411Z,91.61
2023-03-04T09:04:52.306Z,91.51
2023-03-04T09:05:52.288Z,91.41
2023-03-04T09:06:53.958Z,91.41
2023-03-04T09:07:52.281Z,91.61
2023-03-04T09:08:52.272Z,91.09
2023-03-04T09:09:52.302Z,91.20
2023-03-04T09:10:52.255Z,91.72
2023-03-04T09:11:52.248Z,91.72
2023-03-04T09:12:52.244Z,91.51
2023-03-04T09:13:52.296Z,91.30
2023-03-04T09:15:08.336Z,91.61
2023-03-04T09:15:52.262Z,92.03
2023-03-04T09:16:52.235Z,92.24
2023-03-04T09:17:52.211Z,92.34
2023-03-04T09:18:52.204Z,92.44
2023-03-04T09:19:52.196Z,92.76
2023-03-04T09:20:52.195Z,92.44
2023-03-04T09:21:52.180Z,92.96
2023-03-04T09:22:52.179Z,93.48
2023-03-04T09:23:52.167Z,93.31
2023-03-04T09:24:52.162Z,92.80
2023-03-04T09:25:52.151Z,93.27
2023-03-04T09:26:52.152Z,93.89
2023-03-04T09:27:52.138Z,93.06
2023-03-04T09:28:52.139Z,93.41
2023-03-04T09:29:52.124Z,93.48
2023-03-04T09:30:52.119Z,92.65
2023-03-04T09:31:52.112Z,93.37
2023-03-04T09:32:52.128Z,93.37
2023-03-04T09:33:52.113Z,93.48
2023-03-04T09:34:52.095Z,92.65
2023-03-04T09:35:52.156Z,92.65
2023-03-04T09:36:52.079Z,93.16
2023-03-04T09:37:52.074Z,93.16
2023-03-04T09:38:52.067Z,93.52
2023-03-04T09:39:52.057Z,93.27
2023-03-04T09:40:52.058Z,94.51
2023-03-04T09:41:52.042Z,94.51
2023-03-04T09:42:52.039Z,94.20
2023-03-04T09:43:52.050Z,94.97
2023-03-04T09:44:52.030Z,94.51
2023-03-04T09:45:52.023Z,94.82
2023-03-04T09:46:52.036Z,94.87
2023-03-04T09:47:52.008Z,94.56
2023-03-04T09:48:52.019Z,95.18
2023-03-04T09:49:52.018Z,95.18
2023-03-04T09:50:51.985Z,96.11
2023-03-04T09:51:51.973Z,96.62
2023-03-04T09:52:51.973Z,96.79
2023-03-04T09:53:51.962Z,96.69
2023-03-04T09:54:51.955Z,96.89
2023-03-04T09:55:51.952Z,96.06
2023-03-04T09:56:51.944Z,95.96
2023-03-04T09:57:51.936Z,95.86
2023-03-04T09:58:51.929Z,96.37
2023-03-04T09:59:51.927Z,96.27
2023-03-04T10:00:52.003Z,96.37
2023-03-04T10:01:51.930Z,96.06
2023-03-04T10:02:51.903Z,96.02
2023-03-04T10:03:51.978Z,96.37
2023-03-04T10:04:52.000Z,96.27
2023-03-04T10:05:51.878Z,96.33
2023-03-04T10:06:51.878Z,96.33
2023-03-04T10:07:51.863Z,96.44
2023-03-04T10:08:51.861Z,96.02
2023-03-04T10:09:51.851Z,95.50
2023-03-04T10:10:51.892Z,95.29
2023-03-04T10:11:51.842Z,95.29
2023-03-04T10:12:51.840Z,95.19
2023-03-04T10:13:51.833Z,95.29
2023-03-04T10:14:51.821Z,95.09
2023-03-04T10:15:51.862Z,94.57
2023-03-04T10:16:51.807Z,94.84
2023-03-04T10:17:51.796Z,94.43
2023-03-04T10:18:51.798Z,95.29
2023-03-04T10:19:51.786Z,95.46
2023-03-04T10:20:51.798Z,96.33
2023-03-04T10:21:51.771Z,96.23
2023-03-04T10:22:51.773Z,96.44
2023-03-04T10:23:51.761Z,95.36
2023-03-04T10:24:51.751Z,95.50
2023-03-04T10:25:51.759Z,95.71
2023-03-04T10:26:51.750Z,95.56
2023-03-04T10:27:51.734Z,95.19
2023-03-04T10:28:51.732Z,95.19
2023-03-04T10:29:51.715Z,94.57
2023-03-04T10:30:51.711Z,94.89
2023-03-04T10:31:51.926Z,94.73
2023-03-04T10:32:51.714Z,94.73
2023-03-04T10:33:51.683Z,94.53
2023-03-04T10:34:51.684Z,94.73
2023-03-04T10:35:51.765Z,94.53
2023-03-04T10:36:51.684Z,94.69
2023-03-04T10:37:51.658Z,94.18
2023-03-04T10:38:51.651Z,94.28
2023-03-04T10:39:51.642Z,94.18
2023-03-04T10:40:51.643Z,93.66
2023-03-04T10:41:51.743Z,93.24
2023-03-04T10:42:51.631Z,92.89
2023-03-04T10:43:51.618Z,93.20
2023-03-04T10:44:52.000Z,92.89
2023-03-04T10:45:51.720Z,93.10
2023-03-04T10:46:51.595Z,92.38
2023-03-04T10:47:51.585Z,91.75
2023-03-04T10:48:51.581Z,92.07
2023-03-04T10:49:51.620Z,92.27
2023-03-04T10:50:51.565Z,92.27
2023-03-04T10:51:51.581Z,92.17
2023-03-04T10:52:51.575Z,92.02
2023-03-04T10:53:51.544Z,91.44
2023-03-04T10:54:51.542Z,90.83
2023-03-04T10:55:51.534Z,90.72
2023-03-04T10:56:51.529Z,90.93
2023-03-04T10:57:51.517Z,90.72
2023-03-04T10:58:51.512Z,90.41
2023-03-04T10:59:51.512Z,90.83
2023-03-04T11:00:51.561Z,90.78
2023-03-04T11:01:51.490Z,91.61
2023-03-04T11:02:51.482Z,90.47
2023-03-04T11:03:51.529Z,90.78
2023-03-04T11:04:51.470Z,91.61
2023-03-04T11:05:51.466Z,90.64
2023-03-04T11:06:51.571Z,89.81
2023-03-04T11:07:56.296Z,90.02
2023-03-04T11:08:51.478Z,89.50
2023-03-04T11:09:51.441Z,89.81
2023-03-04T11:10:51.432Z,89.40
2023-03-04T11:11:51.429Z,89.61
2023-03-04T11:12:51.418Z,89.19
2023-03-04T11:13:51.416Z,89.29
2023-03-04T11:14:51.418Z,89.40
2023-03-04T11:15:51.406Z,89.19
2023-03-04T11:16:51.425Z,89.23
2023-03-04T11:17:51.388Z,89.03
2023-03-04T11:18:51.379Z,89.34
2023-03-04T11:19:51.376Z,89.13
2023-03-04T11:20:51.363Z,89.13
2023-03-04T11:21:51.360Z,89.13
2023-03-04T11:22:51.354Z,89.34
2023-03-04T11:23:51.749Z,89.07
2023-03-04T11:24:51.361Z,89.23
2023-03-04T11:25:51.350Z,89.17
2023-03-04T11:26:51.323Z,89.03
2023-03-04T11:27:51.320Z,89.38
2023-03-04T11:28:51.313Z,90.20
2023-03-04T11:29:51.317Z,89.95
2023-03-04T11:30:51.412Z,89.44
2023-03-04T11:31:51.328Z,88.82
2023-03-04T11:32:51.325Z,88.92
2023-03-04T11:33:51.292Z,89.34
2023-03-04T11:34:51.319Z,89.65
2023-03-04T11:35:51.298Z,89.23
2023-03-04T11:36:51.284Z,89.29
2023-03-04T11:37:51.264Z,89.09
2023-03-04T11:38:51.259Z,88.57
2023-03-04T11:39:51.265Z,88.53
2023-03-04T11:40:51.269Z,88.89
2023-03-04T11:41:51.256Z,88.06
2023-03-04T11:42:51.262Z,88.37
2023-03-04T11:43:51.249Z,88.32
2023-03-04T11:44:51.254Z,87.92
2023-03-04T11:45:51.303Z,86.92
2023-03-04T11:46:51.224Z,86.82
2023-03-04T11:47:51.223Z,87.13
2023-03-04T11:48:51.230Z,86.51
2023-03-04T11:49:51.243Z,86.86
2023-03-04T11:50:51.203Z,87.79
2023-03-04T11:51:51.204Z,88.20
2023-03-04T11:52:51.192Z,87.89
2023-03-04T11:53:51.184Z,87.58
2023-03-04T11:54:51.176Z,87.79
2023-03-04T11:55:51.176Z,87.68
2023-03-04T11:56:51.183Z,88.51
2023-03-04T11:57:51.160Z,88.41
2023-03-04T11:58:51.153Z,88.37
2023-03-04T11:59:51.150Z,88.98
2023-03-04T12:00:51.134Z,89.05
2023-03-04T12:01:51.133Z,88.64
2023-03-04T12:02:51.123Z,88.64
2023-03-04T12:03:51.253Z,87.92
2023-03-04T12:04:51.135Z,88.22
2023-03-04T12:05:51.104Z,87.98
2023-03-04T12:06:51.102Z,86.94
2023-03-04T12:07:51.088Z,86.74
2023-03-04T12:08:51.089Z,86.22
2023-03-04T12:09:51.080Z,86.32
2023-03-04T12:10:51.067Z,86.94
2023-03-04T12:11:51.075Z,87.56
2023-03-04T12:12:51.075Z,87.05
2023-03-04T12:13:51.057Z,87.05
2023-03-04T12:14:51.052Z,86.74
2023-03-04T12:15:51.080Z,86.94
2023-03-04T12:16:51.035Z,87.05
2023-03-04T12:17:51.038Z,86.43
2023-03-04T12:18:51.021Z,86.53
2023-03-04T12:19:51.013Z,86.12
2023-03-04T12:20:51.007Z,86.26
2023-03-04T12:21:51.002Z,85.75
2023-03-04T12:22:51.010Z,86.36
2023-03-04T12:23:50.989Z,86.57
2023-03-04T12:24:50.983Z,86.57
2023-03-04T12:25:50.975Z,86.78
2023-03-04T12:26:50.976Z,87.08
2023-03-04T12:27:50.964Z,87.29
2023-03-04T12:28:50.976Z,87.19
2023-03-04T12:29:50.951Z,86.68
2023-03-04T12:30:50.977Z,87.29
2023-03-04T12:31:50.937Z,87.08
2023-03-04T12:32:50.933Z,86.98
2023-03-04T12:33:50.972Z,87.08
2023-03-04T12:34:50.918Z,87.50
2023-03-04T12:35:50.923Z,86.98
2023-03-04T12:36:50.910Z,87.08
2023-03-04T12:37:50.899Z,86.98
2023-03-04T12:38:50.893Z,86.78
2023-03-04T12:39:50.888Z,87.19
2023-03-04T12:40:50.879Z,86.98
2023-03-04T12:41:50.876Z,86.98
2023-03-04T12:42:50.867Z,87.40
2023-03-04T12:43:50.875Z,86.47
2023-03-04T12:44:50.875Z,86.47
2023-03-04T12:45:50.852Z,86.68
2023-03-04T12:46:50.915Z,87.29
2023-03-04T12:47:50.839Z,87.81
2023-03-04T12:48:50.828Z,87.46
2023-03-04T12:49:50.826Z,87.60
2023-03-04T12:50:50.825Z,87.77
2023-03-04T12:51:50.814Z,88.08
2023-03-04T12:52:50.807Z,87.05